Terminal Aerodrome Forecast
Issued by NWS

Home | Current Version | Previous Version | Text Only | Print | Product List | Glossary On
Versions: 1 2 3 4 5 6 7 8 9 10 11 12 13 14 15 16 17
000
FTUS44 KMAF 270202 AAA
TAFFST
TAF AMD
KFST 270202Z 2702/2724 16014G22KT P6SM BKN200
     FM271100 19011KT P6SM SCT250
     FM271600 17012G20KT P6SM SCT250=

USA.gov is the U.S. government's official web portal to all federal, state and local government web resources and services.